Schulte, Kansas
Current Conditions -  °F | °C
As of 8:09 AM on Saturday 22 Nov 2014 (Local Time) from KICT Reporting Station
Drizzle Drizzle  
Wind Chill: 43°   Ceiling: 200
Heat Index: 45°   Visibility: 0.12mi
Dew Point: 45°   Wind: 5mph
Humidity: 100%   Direction: 180°S
Pressure: 29.96"   Gusts: NA
Location:  37.6181°N, 97.4387°W
Report Text: KICT 221409Z 18004KT 1/8SM R01L/1800V2000FT -DZ FG VV002 07/07 A2996 RMK AO2 P0000 T00720072
Loading
Personal Weather Stations






























Interactive Weather Map New forecast layout! Learn more

10-Day Weather Forecast

Advertisements
Track Severe Weather on mobile